sensor_id;sensor_type;location;lat;lon;timestamp;P1;durP1;ratioP1;P2;durP2;ratioP2
29026;SDS011;16120;48.608;9.092;2023-02-01T00:00:20;68.57;;;5.90;;
29026;SDS011;16120;48.608;9.092;2023-02-01T00:04:15;69.20;;;6.17;;
29026;SDS011;16120;48.608;9.092;2023-02-01T00:08:10;69.37;;;5.70;;
29026;SDS011;16120;48.608;9.092;2023-02-01T00:12:07;68.63;;;6.07;;
29026;SDS011;16120;48.608;9.092;2023-02-01T00:16:03;67.67;;;5.60;;
29026;SDS011;16120;48.608;9.092;2023-02-01T00:19:58;66.97;;;5.13;;
29026;SDS011;16120;48.608;9.092;2023-02-01T00:23:53;70.73;;;5.47;;
29026;SDS011;16120;48.608;9.092;2023-02-01T00:27:50;68.53;;;5.47;;
29026;SDS011;16120;48.608;9.092;2023-02-01T00:31:45;67.30;;;5.27;;
29026;SDS011;16120;48.608;9.092;2023-02-01T00:35:40;67.90;;;5.63;;
29026;SDS011;16120;48.608;9.092;2023-02-01T00:39:35;66.20;;;5.50;;
29026;SDS011;16120;48.608;9.092;2023-02-01T00:43:32;72.03;;;5.47;;
29026;SDS011;16120;48.608;9.092;2023-02-01T00:47:27;65.80;;;4.83;;
29026;SDS011;16120;48.608;9.092;2023-02-01T00:51:23;66.10;;;5.00;;
29026;SDS011;16120;48.608;9.092;2023-02-01T00:55:18;65.80;;;5.10;;
29026;SDS011;16120;48.608;9.092;2023-02-01T00:59:15;68.67;;;5.53;;
29026;SDS011;16120;48.608;9.092;2023-02-01T01:03:10;66.37;;;5.33;;
29026;SDS011;16120;48.608;9.092;2023-02-01T01:07:05;67.30;;;4.83;;
29026;SDS011;16120;48.608;9.092;2023-02-01T01:11:03;66.13;;;5.23;;
29026;SDS011;16120;48.608;9.092;2023-02-01T01:15:00;64.97;;;5.03;;
29026;SDS011;16120;48.608;9.092;2023-02-01T01:18:55;66.67;;;4.90;;
29026;SDS011;16120;48.608;9.092;2023-02-01T01:22:51;64.97;;;4.93;;
29026;SDS011;16120;48.608;9.092;2023-02-01T01:26:46;65.47;;;5.27;;
29026;SDS011;16120;48.608;9.092;2023-02-01T01:30:42;66.47;;;5.50;;
29026;SDS011;16120;48.608;9.092;2023-02-01T01:34:38;65.50;;;5.07;;
29026;SDS011;16120;48.608;9.092;2023-02-01T01:38:33;65.65;;;4.80;;
29026;SDS011;16120;48.608;9.092;2023-02-01T01:42:29;65.67;;;4.70;;
29026;SDS011;16120;48.608;9.092;2023-02-01T01:46:26;64.53;;;4.47;;
29026;SDS011;16120;48.608;9.092;2023-02-01T01:50:23;65.60;;;4.77;;
29026;SDS011;16120;48.608;9.092;2023-02-01T01:54:20;64.87;;;4.80;;
29026;SDS011;16120;48.608;9.092;2023-02-01T01:58:17;64.60;;;4.87;;
29026;SDS011;16120;48.608;9.092;2023-02-01T02:02:14;64.30;;;4.13;;
29026;SDS011;16120;48.608;9.092;2023-02-01T02:06:11;65.90;;;4.50;;
29026;SDS011;16120;48.608;9.092;2023-02-01T02:10:09;64.17;;;4.33;;
29026;SDS011;16120;48.608;9.092;2023-02-01T02:14:05;64.90;;;4.23;;
29026;SDS011;16120;48.608;9.092;2023-02-01T02:18:05;64.50;;;4.43;;
29026;SDS011;16120;48.608;9.092;2023-02-01T02:22:07;65.73;;;4.23;;
29026;SDS011;16120;48.608;9.092;2023-02-01T02:26:20;65.33;;;4.20;;
29026;SDS011;16120;48.608;9.092;2023-02-01T02:30:29;65.37;;;4.50;;
29026;SDS011;16120;48.608;9.092;2023-02-01T02:34:32;65.13;;;4.33;;
29026;SDS011;16120;48.608;9.092;2023-02-01T02:38:32;63.60;;;4.20;;
29026;SDS011;16120;48.608;9.092;2023-02-01T02:42:29;64.07;;;4.47;;
29026;SDS011;16120;48.608;9.092;2023-02-01T02:46:27;63.93;;;4.27;;
29026;SDS011;16120;48.608;9.092;2023-02-01T02:50:26;64.27;;;4.70;;
29026;SDS011;16120;48.608;9.092;2023-02-01T02:54:23;66.47;;;4.47;;
29026;SDS011;16120;48.608;9.092;2023-02-01T02:58:19;65.07;;;4.53;;
29026;SDS011;16120;48.608;9.092;2023-02-01T03:02:16;63.70;;;4.13;;
29026;SDS011;16120;48.608;9.092;2023-02-01T03:06:13;65.37;;;4.60;;
29026;SDS011;16120;48.608;9.092;2023-02-01T03:10:10;64.93;;;4.43;;
29026;SDS011;16120;48.608;9.092;2023-02-01T03:14:09;64.57;;;4.70;;
29026;SDS011;16120;48.608;9.092;2023-02-01T03:18:06;65.10;;;4.70;;
29026;SDS011;16120;48.608;9.092;2023-02-01T03:22:05;66.10;;;5.10;;
29026;SDS011;16120;48.608;9.092;2023-02-01T03:26:02;66.77;;;4.73;;
29026;SDS011;16120;48.608;9.092;2023-02-01T03:29:59;67.80;;;5.13;;
29026;SDS011;16120;48.608;9.092;2023-02-01T03:33:56;67.77;;;5.50;;
29026;SDS011;16120;48.608;9.092;2023-02-01T03:37:53;65.25;;;4.82;;
29026;SDS011;16120;48.608;9.092;2023-02-01T03:41:51;67.90;;;4.73;;
29026;SDS011;16120;48.608;9.092;2023-02-01T03:45:48;65.13;;;4.40;;
29026;SDS011;16120;48.608;9.092;2023-02-01T03:49:46;65.97;;;5.13;;
29026;SDS011;16120;48.608;9.092;2023-02-01T03:53:44;66.83;;;4.90;;
29026;SDS011;16120;48.608;9.092;2023-02-01T03:57:43;65.10;;;5.10;;
29026;SDS011;16120;48.608;9.092;2023-02-01T04:01:38;65.47;;;4.83;;
29026;SDS011;16120;48.608;9.092;2023-02-01T04:05:34;65.40;;;4.47;;
29026;SDS011;16120;48.608;9.092;2023-02-01T04:09:30;65.70;;;4.83;;
29026;SDS011;16120;48.608;9.092;2023-02-01T04:13:25;65.00;;;4.60;;
29026;SDS011;16120;48.608;9.092;2023-02-01T04:17:21;64.90;;;4.60;;
29026;SDS011;16120;48.608;9.092;2023-02-01T04:21:16;64.40;;;4.30;;
29026;SDS011;16120;48.608;9.092;2023-02-01T04:25:13;64.93;;;4.43;;
29026;SDS011;16120;48.608;9.092;2023-02-01T04:29:08;65.63;;;4.57;;
29026;SDS011;16120;48.608;9.092;2023-02-01T04:33:03;65.53;;;4.30;;
29026;SDS011;16120;48.608;9.092;2023-02-01T04:36:58;63.40;;;4.13;;
29026;SDS011;16120;48.608;9.092;2023-02-01T04:40:55;66.68;;;5.25;;
29026;SDS011;16120;48.608;9.092;2023-02-01T04:44:50;64.20;;;4.30;;
29026;SDS011;16120;48.608;9.092;2023-02-01T04:48:45;64.47;;;4.10;;
29026;SDS011;16120;48.608;9.092;2023-02-01T04:52:41;66.13;;;4.43;;
29026;SDS011;16120;48.608;9.092;2023-02-01T04:56:37;65.40;;;4.40;;
29026;SDS011;16120;48.608;9.092;2023-02-01T05:00:33;67.40;;;4.77;;
29026;SDS011;16120;48.608;9.092;2023-02-01T05:04:28;64.10;;;4.10;;
29026;SDS011;16120;48.608;9.092;2023-02-01T05:08:23;65.30;;;4.37;;
29026;SDS011;16120;48.608;9.092;2023-02-01T05:12:20;64.43;;;4.15;;
29026;SDS011;16120;48.608;9.092;2023-02-01T05:16:15;64.70;;;4.43;;
29026;SDS011;16120;48.608;9.092;2023-02-01T05:20:11;65.90;;;4.47;;
29026;SDS011;16120;48.608;9.092;2023-02-01T05:24:07;64.70;;;4.03;;
29026;SDS011;16120;48.608;9.092;2023-02-01T05:28:04;65.13;;;4.10;;
29026;SDS011;16120;48.608;9.092;2023-02-01T05:31:59;65.43;;;4.30;;
29026;SDS011;16120;48.608;9.092;2023-02-01T05:35:55;64.33;;;4.17;;
29026;SDS011;16120;48.608;9.092;2023-02-01T05:39:50;64.90;;;4.37;;
29026;SDS011;16120;48.608;9.092;2023-02-01T05:43:46;67.25;;;4.40;;
29026;SDS011;16120;48.608;9.092;2023-02-01T05:47:41;64.57;;;4.10;;
29026;SDS011;16120;48.608;9.092;2023-02-01T05:51:37;64.30;;;4.10;;
29026;SDS011;16120;48.608;9.092;2023-02-01T05:55:32;68.50;;;4.43;;
29026;SDS011;16120;48.608;9.092;2023-02-01T05:59:28;64.05;;;4.20;;
29026;SDS011;16120;48.608;9.092;2023-02-01T06:03:24;65.00;;;4.30;;
29026;SDS011;16120;48.608;9.092;2023-02-01T06:07:19;64.90;;;4.20;;
29026;SDS011;16120;48.608;9.092;2023-02-01T06:11:14;64.83;;;4.37;;
29026;SDS011;16120;48.608;9.092;2023-02-01T06:15:11;64.37;;;4.03;;
29026;SDS011;16120;48.608;9.092;2023-02-01T06:19:06;65.20;;;4.30;;
29026;SDS011;16120;48.608;9.092;2023-02-01T06:23:01;63.90;;;4.37;;
29026;SDS011;16120;48.608;9.092;2023-02-01T06:26:56;65.80;;;4.23;;
29026;SDS011;16120;48.608;9.092;2023-02-01T06:30:53;65.37;;;4.07;;
29026;SDS011;16120;48.608;9.092;2023-02-01T06:34:48;65.40;;;4.00;;
29026;SDS011;16120;48.608;9.092;2023-02-01T06:38:43;64.20;;;4.03;;
29026;SDS011;16120;48.608;9.092;2023-02-01T06:42:39;64.70;;;4.00;;
29026;SDS011;16120;48.608;9.092;2023-02-01T06:46:35;66.00;;;4.07;;
29026;SDS011;16120;48.608;9.092;2023-02-01T06:50:30;65.30;;;4.00;;
29026;SDS011;16120;48.608;9.092;2023-02-01T06:54:26;64.30;;;4.15;;
29026;SDS011;16120;48.608;9.092;2023-02-01T06:58:21;65.28;;;4.40;;
29026;SDS011;16120;48.608;9.092;2023-02-01T07:02:18;64.70;;;4.00;;
29026;SDS011;16120;48.608;9.092;2023-02-01T07:06:13;65.73;;;3.97;;
29026;SDS011;16120;48.608;9.092;2023-02-01T07:10:09;72.35;;;4.55;;
29026;SDS011;16120;48.608;9.092;2023-02-01T07:14:04;64.93;;;3.80;;
29026;SDS011;16120;48.608;9.092;2023-02-01T07:18:01;66.65;;;4.28;;
29026;SDS011;16120;48.608;9.092;2023-02-01T07:21:56;70.60;;;4.50;;
29026;SDS011;16120;48.608;9.092;2023-02-01T07:25:53;65.27;;;4.30;;
29026;SDS011;16120;48.608;9.092;2023-02-01T07:29:48;66.20;;;4.10;;
29026;SDS011;16120;48.608;9.092;2023-02-01T07:33:45;64.37;;;4.20;;
29026;SDS011;16120;48.608;9.092;2023-02-01T07:37:40;64.57;;;3.77;;
29026;SDS011;16120;48.608;9.092;2023-02-01T07:41:35;64.30;;;3.80;;
29026;SDS011;16120;48.608;9.092;2023-02-01T07:45:31;64.67;;;4.30;;
29026;SDS011;16120;48.608;9.092;2023-02-01T07:49:27;65.10;;;4.30;;
29026;SDS011;16120;48.608;9.092;2023-02-01T07:53:22;66.57;;;4.63;;
29026;SDS011;16120;48.608;9.092;2023-02-01T07:57:18;66.65;;;4.45;;
29026;SDS011;16120;48.608;9.092;2023-02-01T08:01:14;66.17;;;4.17;;
29026;SDS011;16120;48.608;9.092;2023-02-01T08:05:11;65.07;;;3.80;;
29026;SDS011;16120;48.608;9.092;2023-02-01T08:09:06;64.90;;;4.20;;
29026;SDS011;16120;48.608;9.092;2023-02-01T08:13:01;66.43;;;4.30;;
29026;SDS011;16120;48.608;9.092;2023-02-01T08:16:57;65.03;;;3.93;;
29026;SDS011;16120;48.608;9.092;2023-02-01T08:20:53;64.70;;;4.00;;
29026;SDS011;16120;48.608;9.092;2023-02-01T08:24:48;65.20;;;3.90;;
29026;SDS011;16120;48.608;9.092;2023-02-01T08:28:44;65.00;;;3.63;;
29026;SDS011;16120;48.608;9.092;2023-02-01T08:32:40;64.87;;;4.07;;
29026;SDS011;16120;48.608;9.092;2023-02-01T08:36:37;66.40;;;4.20;;
29026;SDS011;16120;48.608;9.092;2023-02-01T08:40:32;65.70;;;4.47;;
29026;SDS011;16120;48.608;9.092;2023-02-01T08:44:27;66.78;;;4.60;;
29026;SDS011;16120;48.608;9.092;2023-02-01T08:48:22;65.70;;;4.77;;
29026;SDS011;16120;48.608;9.092;2023-02-01T08:52:19;66.43;;;4.10;;
29026;SDS011;16120;48.608;9.092;2023-02-01T08:56:15;65.30;;;3.80;;
29026;SDS011;16120;48.608;9.092;2023-02-01T09:00:12;64.67;;;3.70;;
29026;SDS011;16120;48.608;9.092;2023-02-01T09:04:07;67.67;;;3.67;;
29026;SDS011;16120;48.608;9.092;2023-02-01T09:08:04;67.27;;;4.00;;
29026;SDS011;16120;48.608;9.092;2023-02-01T09:11:59;64.50;;;3.70;;
29026;SDS011;16120;48.608;9.092;2023-02-01T09:15:55;64.38;;;3.67;;
29026;SDS011;16120;48.608;9.092;2023-02-01T09:19:50;66.57;;;3.80;;
29026;SDS011;16120;48.608;9.092;2023-02-01T09:23:46;66.00;;;4.00;;
29026;SDS011;16120;48.608;9.092;2023-02-01T09:27:42;69.27;;;4.20;;
29026;SDS011;16120;48.608;9.092;2023-02-01T09:31:37;67.13;;;4.27;;
29026;SDS011;16120;48.608;9.092;2023-02-01T09:35:35;64.63;;;4.20;;
29026;SDS011;16120;48.608;9.092;2023-02-01T09:39:31;67.17;;;4.50;;
29026;SDS011;16120;48.608;9.092;2023-02-01T09:43:29;67.73;;;4.20;;
29026;SDS011;16120;48.608;9.092;2023-02-01T09:47:30;64.77;;;3.93;;
29026;SDS011;16120;48.608;9.092;2023-02-01T09:51:27;66.00;;;4.23;;
29026;SDS011;16120;48.608;9.092;2023-02-01T09:55:27;67.13;;;4.30;;
29026;SDS011;16120;48.608;9.092;2023-02-01T09:59:28;66.77;;;4.10;;
29026;SDS011;16120;48.608;9.092;2023-02-01T10:03:24;65.57;;;4.47;;
29026;SDS011;16120;48.608;9.092;2023-02-01T10:07:23;73.37;;;8.10;;
29026;SDS011;16120;48.608;9.092;2023-02-01T10:11:23;70.40;;;4.53;;
29026;SDS011;16120;48.608;9.092;2023-02-01T10:15:24;66.50;;;4.10;;
29026;SDS011;16120;48.608;9.092;2023-02-01T10:19:24;66.43;;;4.10;;
29026;SDS011;16120;48.608;9.092;2023-02-01T10:23:26;72.30;;;5.10;;
29026;SDS011;16120;48.608;9.092;2023-02-01T10:27:28;74.97;;;5.40;;
29026;SDS011;16120;48.608;9.092;2023-02-01T10:31:25;69.00;;;4.73;;
29026;SDS011;16120;48.608;9.092;2023-02-01T10:35:22;67.40;;;4.53;;
29026;SDS011;16120;48.608;9.092;2023-02-01T10:39:18;72.27;;;5.00;;
29026;SDS011;16120;48.608;9.092;2023-02-01T10:43:15;66.30;;;5.10;;
29026;SDS011;16120;48.608;9.092;2023-02-01T10:47:10;66.27;;;4.60;;
29026;SDS011;16120;48.608;9.092;2023-02-01T10:51:06;68.03;;;4.27;;
29026;SDS011;16120;48.608;9.092;2023-02-01T10:59:18;68.23;;;4.30;;
29026;SDS011;16120;48.608;9.092;2023-02-01T11:03:21;68.10;;;4.70;;
29026;SDS011;16120;48.608;9.092;2023-02-01T11:07:17;70.90;;;5.10;;
29026;SDS011;16120;48.608;9.092;2023-02-01T11:11:14;68.30;;;4.40;;
29026;SDS011;16120;48.608;9.092;2023-02-01T11:15:15;73.20;;;4.63;;
29026;SDS011;16120;48.608;9.092;2023-02-01T11:19:13;74.07;;;5.17;;
29026;SDS011;16120;48.608;9.092;2023-02-01T11:23:13;69.97;;;4.67;;
29026;SDS011;16120;48.608;9.092;2023-02-01T11:27:12;68.00;;;4.43;;
29026;SDS011;16120;48.608;9.092;2023-02-01T11:31:11;73.93;;;5.10;;
29026;SDS011;16120;48.608;9.092;2023-02-01T11:35:07;76.87;;;4.97;;
29026;SDS011;16120;48.608;9.092;2023-02-01T11:39:08;69.50;;;4.80;;
29026;SDS011;16120;48.608;9.092;2023-02-01T11:43:07;69.80;;;5.10;;
29026;SDS011;16120;48.608;9.092;2023-02-01T11:47:20;69.93;;;4.80;;
29026;SDS011;16120;48.608;9.092;2023-02-01T11:51:19;75.67;;;4.97;;
29026;SDS011;16120;48.608;9.092;2023-02-01T11:55:19;69.20;;;4.93;;
29026;SDS011;16120;48.608;9.092;2023-02-01T11:59:23;68.00;;;4.67;;
29026;SDS011;16120;48.608;9.092;2023-02-01T12:07:38;75.20;;;5.40;;
29026;SDS011;16120;48.608;9.092;2023-02-01T12:11:43;68.70;;;4.83;;
29026;SDS011;16120;48.608;9.092;2023-02-01T12:15:41;73.00;;;4.77;;
29026;SDS011;16120;48.608;9.092;2023-02-01T12:19:43;74.80;;;4.93;;
29026;SDS011;16120;48.608;9.092;2023-02-01T12:23:46;70.10;;;4.80;;
29026;SDS011;16120;48.608;9.092;2023-02-01T12:27:48;70.60;;;4.93;;
29026;SDS011;16120;48.608;9.092;2023-02-01T12:31:54;72.43;;;5.10;;
29026;SDS011;16120;48.608;9.092;2023-02-01T12:35:56;70.60;;;5.03;;
29026;SDS011;16120;48.608;9.092;2023-02-01T12:39:56;70.90;;;5.97;;
29026;SDS011;16120;48.608;9.092;2023-02-01T12:43:53;69.77;;;5.40;;
29026;SDS011;16120;48.608;9.092;2023-02-01T12:47:51;73.07;;;4.60;;
29026;SDS011;16120;48.608;9.092;2023-02-01T12:51:48;75.90;;;4.90;;
29026;SDS011;16120;48.608;9.092;2023-02-01T12:55:46;69.30;;;5.00;;
29026;SDS011;16120;48.608;9.092;2023-02-01T12:59:44;73.67;;;4.93;;
29026;SDS011;16120;48.608;9.092;2023-02-01T13:03:42;76.33;;;4.63;;
29026;SDS011;16120;48.608;9.092;2023-02-01T13:07:41;69.23;;;4.97;;
29026;SDS011;16120;48.608;9.092;2023-02-01T13:11:39;69.60;;;4.40;;
29026;SDS011;16120;48.608;9.092;2023-02-01T13:15:36;77.77;;;5.50;;
29026;SDS011;16120;48.608;9.092;2023-02-01T13:19:36;73.07;;;5.30;;
29026;SDS011;16120;48.608;9.092;2023-02-01T13:23:35;69.97;;;5.47;;
29026;SDS011;16120;48.608;9.092;2023-02-01T13:27:32;74.97;;;4.77;;
29026;SDS011;16120;48.608;9.092;2023-02-01T13:31:43;80.13;;;5.00;;
29026;SDS011;16120;48.608;9.092;2023-02-01T13:35:51;73.73;;;4.23;;
29026;SDS011;16120;48.608;9.092;2023-02-01T13:39:52;71.70;;;4.60;;
29026;SDS011;16120;48.608;9.092;2023-02-01T13:43:54;73.23;;;5.60;;
29026;SDS011;16120;48.608;9.092;2023-02-01T13:47:51;68.53;;;4.50;;
29026;SDS011;16120;48.608;9.092;2023-02-01T13:51:47;70.57;;;5.20;;
29026;SDS011;16120;48.608;9.092;2023-02-01T13:55:43;73.70;;;5.97;;
29026;SDS011;16120;48.608;9.092;2023-02-01T14:03:54;71.10;;;4.80;;
29026;SDS011;16120;48.608;9.092;2023-02-01T14:08:02;75.20;;;5.57;;
29026;SDS011;16120;48.608;9.092;2023-02-01T14:11:57;72.47;;;5.00;;
29026;SDS011;16120;48.608;9.092;2023-02-01T14:24:22;70.20;;;4.33;;
29026;SDS011;16120;48.608;9.092;2023-02-01T14:28:23;68.30;;;4.93;;
29026;SDS011;16120;48.608;9.092;2023-02-01T14:32:20;71.70;;;5.23;;
29026;SDS011;16120;48.608;9.092;2023-02-01T14:36:15;69.47;;;4.50;;
29026;SDS011;16120;48.608;9.092;2023-02-01T14:40:16;72.57;;;4.67;;
29026;SDS011;16120;48.608;9.092;2023-02-01T14:44:14;70.90;;;4.90;;
29026;SDS011;16120;48.608;9.092;2023-02-01T14:52:31;70.37;;;5.03;;
29026;SDS011;16120;48.608;9.092;2023-02-01T14:56:29;70.10;;;5.20;;
29026;SDS011;16120;48.608;9.092;2023-02-01T15:00:26;75.20;;;5.13;;
29026;SDS011;16120;48.608;9.092;2023-02-01T15:04:24;73.60;;;5.13;;
29026;SDS011;16120;48.608;9.092;2023-02-01T15:08:21;75.80;;;5.20;;
29026;SDS011;16120;48.608;9.092;2023-02-01T15:12:23;76.20;;;5.30;;
29026;SDS011;16120;48.608;9.092;2023-02-01T15:16:19;73.83;;;5.47;;
29026;SDS011;16120;48.608;9.092;2023-02-01T15:20:15;70.70;;;4.97;;
29026;SDS011;16120;48.608;9.092;2023-02-01T15:24:11;74.67;;;5.10;;
29026;SDS011;16120;48.608;9.092;2023-02-01T15:28:10;68.37;;;4.97;;
29026;SDS011;16120;48.608;9.092;2023-02-01T15:32:15;74.67;;;4.97;;
29026;SDS011;16120;48.608;9.092;2023-02-01T15:36:22;76.33;;;5.37;;
29026;SDS011;16120;48.608;9.092;2023-02-01T15:40:19;70.15;;;5.30;;
29026;SDS011;16120;48.608;9.092;2023-02-01T15:44:18;73.07;;;4.60;;
29026;SDS011;16120;48.608;9.092;2023-02-01T15:48:15;72.40;;;5.20;;
29026;SDS011;16120;48.608;9.092;2023-02-01T15:52:20;80.30;;;4.97;;
29026;SDS011;16120;48.608;9.092;2023-02-01T15:56:16;74.60;;;5.00;;
29026;SDS011;16120;48.608;9.092;2023-02-01T16:00:21;72.87;;;4.93;;
29026;SDS011;16120;48.608;9.092;2023-02-01T16:04:18;70.37;;;4.80;;
29026;SDS011;16120;48.608;9.092;2023-02-01T16:08:14;72.33;;;5.60;;
29026;SDS011;16120;48.608;9.092;2023-02-01T16:12:21;72.50;;;5.07;;
29026;SDS011;16120;48.608;9.092;2023-02-01T16:16:18;76.23;;;5.63;;
29026;SDS011;16120;48.608;9.092;2023-02-01T16:20:13;78.00;;;5.07;;
29026;SDS011;16120;48.608;9.092;2023-02-01T16:24:09;68.60;;;5.03;;
29026;SDS011;16120;48.608;9.092;2023-02-01T16:28:04;71.43;;;5.33;;
29026;SDS011;16120;48.608;9.092;2023-02-01T16:32:00;72.07;;;4.93;;
29026;SDS011;16120;48.608;9.092;2023-02-01T16:35:56;70.20;;;4.90;;
29026;SDS011;16120;48.608;9.092;2023-02-01T16:39:52;70.60;;;5.20;;
29026;SDS011;16120;48.608;9.092;2023-02-01T16:43:49;68.50;;;4.80;;
29026;SDS011;16120;48.608;9.092;2023-02-01T16:47:46;81.80;;;5.73;;
29026;SDS011;16120;48.608;9.092;2023-02-01T16:51:42;69.47;;;4.93;;
29026;SDS011;16120;48.608;9.092;2023-02-01T16:55:38;72.40;;;5.13;;
29026;SDS011;16120;48.608;9.092;2023-02-01T16:59:33;69.93;;;5.22;;
29026;SDS011;16120;48.608;9.092;2023-02-01T17:03:29;75.50;;;6.43;;
29026;SDS011;16120;48.608;9.092;2023-02-01T17:07:25;72.40;;;4.70;;
29026;SDS011;16120;48.608;9.092;2023-02-01T17:11:21;75.03;;;5.23;;
29026;SDS011;16120;48.608;9.092;2023-02-01T17:15:16;72.60;;;5.03;;
29026;SDS011;16120;48.608;9.092;2023-02-01T17:19:13;77.70;;;6.10;;
29026;SDS011;16120;48.608;9.092;2023-02-01T17:23:09;77.73;;;5.37;;
29026;SDS011;16120;48.608;9.092;2023-02-01T17:27:04;65.90;;;5.07;;
29026;SDS011;16120;48.608;9.092;2023-02-01T17:30:59;71.78;;;5.25;;
29026;SDS011;16120;48.608;9.092;2023-02-01T17:34:57;69.43;;;5.13;;
29026;SDS011;16120;48.608;9.092;2023-02-01T17:38:52;75.60;;;5.10;;
29026;SDS011;16120;48.608;9.092;2023-02-01T17:42:47;71.07;;;4.70;;
29026;SDS011;16120;48.608;9.092;2023-02-01T17:46:42;69.77;;;4.97;;
29026;SDS011;16120;48.608;9.092;2023-02-01T17:50:39;71.35;;;4.95;;
29026;SDS011;16120;48.608;9.092;2023-02-01T17:54:34;70.07;;;4.70;;
29026;SDS011;16120;48.608;9.092;2023-02-01T17:58:30;70.95;;;5.50;;
29026;SDS011;16120;48.608;9.092;2023-02-01T18:02:25;74.65;;;5.75;;
29026;SDS011;16120;48.608;9.092;2023-02-01T18:06:22;70.37;;;5.23;;
29026;SDS011;16120;48.608;9.092;2023-02-01T18:10:17;68.57;;;5.30;;
29026;SDS011;16120;48.608;9.092;2023-02-01T18:14:13;71.37;;;5.37;;
29026;SDS011;16120;48.608;9.092;2023-02-01T18:18:08;69.80;;;5.00;;
29026;SDS011;16120;48.608;9.092;2023-02-01T18:22:05;70.30;;;4.78;;
29026;SDS011;16120;48.608;9.092;2023-02-01T18:26:00;71.57;;;4.80;;
29026;SDS011;16120;48.608;9.092;2023-02-01T18:29:55;68.87;;;5.87;;
29026;SDS011;16120;48.608;9.092;2023-02-01T18:33:51;68.03;;;5.10;;
29026;SDS011;16120;48.608;9.092;2023-02-01T18:37:48;67.73;;;5.10;;
29026;SDS011;16120;48.608;9.092;2023-02-01T18:41:43;66.97;;;4.93;;
29026;SDS011;16120;48.608;9.092;2023-02-01T18:45:41;70.93;;;4.90;;
29026;SDS011;16120;48.608;9.092;2023-02-01T18:49:36;74.93;;;5.20;;
29026;SDS011;16120;48.608;9.092;2023-02-01T18:53:33;71.40;;;5.23;;
29026;SDS011;16120;48.608;9.092;2023-02-01T18:57:28;69.57;;;4.97;;
29026;SDS011;16120;48.608;9.092;2023-02-01T19:01:23;69.00;;;4.97;;
29026;SDS011;16120;48.608;9.092;2023-02-01T19:05:18;69.50;;;4.33;;
29026;SDS011;16120;48.608;9.092;2023-02-01T19:09:15;75.75;;;5.60;;
29026;SDS011;16120;48.608;9.092;2023-02-01T19:13:10;74.80;;;4.97;;
29026;SDS011;16120;48.608;9.092;2023-02-01T19:17:06;67.83;;;4.90;;
29026;SDS011;16120;48.608;9.092;2023-02-01T19:21:01;67.50;;;5.00;;
29026;SDS011;16120;48.608;9.092;2023-02-01T19:24:58;69.00;;;4.60;;
29026;SDS011;16120;48.608;9.092;2023-02-01T19:28:53;69.07;;;4.90;;
29026;SDS011;16120;48.608;9.092;2023-02-01T19:32:48;71.28;;;4.97;;
29026;SDS011;16120;48.608;9.092;2023-02-01T19:36:44;70.90;;;5.10;;
29026;SDS011;16120;48.608;9.092;2023-02-01T19:40:42;71.90;;;4.37;;
29026;SDS011;16120;48.608;9.092;2023-02-01T19:44:37;71.90;;;4.93;;
29026;SDS011;16120;48.608;9.092;2023-02-01T19:48:32;70.50;;;4.95;;
29026;SDS011;16120;48.608;9.092;2023-02-01T19:52:27;72.00;;;4.90;;
29026;SDS011;16120;48.608;9.092;2023-02-01T19:56:24;74.27;;;5.33;;
29026;SDS011;16120;48.608;9.092;2023-02-01T20:00:19;70.00;;;4.60;;
29026;SDS011;16120;48.608;9.092;2023-02-01T20:04:15;71.95;;;5.20;;
29026;SDS011;16120;48.608;9.092;2023-02-01T20:08:10;70.70;;;5.00;;
29026;SDS011;16120;48.608;9.092;2023-02-01T20:12:07;68.77;;;5.23;;
29026;SDS011;16120;48.608;9.092;2023-02-01T20:16:02;67.77;;;4.43;;
29026;SDS011;16120;48.608;9.092;2023-02-01T20:19:57;70.33;;;5.13;;
29026;SDS011;16120;48.608;9.092;2023-02-01T20:23:53;67.27;;;4.97;;
29026;SDS011;16120;48.608;9.092;2023-02-01T20:27:49;70.70;;;5.40;;
29026;SDS011;16120;48.608;9.092;2023-02-01T20:31:45;67.07;;;4.67;;
29026;SDS011;16120;48.608;9.092;2023-02-01T20:35:42;68.37;;;4.83;;
29026;SDS011;16120;48.608;9.092;2023-02-01T20:39:37;69.17;;;5.23;;
29026;SDS011;16120;48.608;9.092;2023-02-01T20:43:34;68.97;;;5.63;;
29026;SDS011;16120;48.608;9.092;2023-02-01T20:47:29;71.83;;;4.80;;
29026;SDS011;16120;48.608;9.092;2023-02-01T20:51:25;72.33;;;5.93;;
29026;SDS011;16120;48.608;9.092;2023-02-01T20:55:20;71.03;;;5.13;;
29026;SDS011;16120;48.608;9.092;2023-02-01T20:59:17;69.03;;;4.80;;
29026;SDS011;16120;48.608;9.092;2023-02-01T21:03:12;70.50;;;4.70;;
29026;SDS011;16120;48.608;9.092;2023-02-01T21:07:07;77.30;;;5.70;;
29026;SDS011;16120;48.608;9.092;2023-02-01T21:11:03;68.17;;;4.83;;
29026;SDS011;16120;48.608;9.092;2023-02-01T21:15:00;70.40;;;5.13;;
29026;SDS011;16120;48.608;9.092;2023-02-01T21:18:55;72.47;;;5.10;;
29026;SDS011;16120;48.608;9.092;2023-02-01T21:22:50;70.47;;;4.80;;
29026;SDS011;16120;48.608;9.092;2023-02-01T21:26:45;66.32;;;5.55;;
29026;SDS011;16120;48.608;9.092;2023-02-01T21:30:42;68.70;;;4.77;;
29026;SDS011;16120;48.608;9.092;2023-02-01T21:34:37;69.20;;;5.40;;
29026;SDS011;16120;48.608;9.092;2023-02-01T21:38:32;71.40;;;4.90;;
29026;SDS011;16120;48.608;9.092;2023-02-01T21:42:28;76.43;;;5.20;;
29026;SDS011;16120;48.608;9.092;2023-02-01T21:46:24;74.20;;;5.00;;
29026;SDS011;16120;48.608;9.092;2023-02-01T21:50:20;74.00;;;5.17;;
29026;SDS011;16120;48.608;9.092;2023-02-01T21:54:15;76.37;;;5.70;;
29026;SDS011;16120;48.608;9.092;2023-02-01T21:58:10;72.63;;;5.43;;
29026;SDS011;16120;48.608;9.092;2023-02-01T22:02:08;70.00;;;5.27;;
29026;SDS011;16120;48.608;9.092;2023-02-01T22:06:04;68.90;;;5.27;;
29026;SDS011;16120;48.608;9.092;2023-02-01T22:10:00;73.60;;;5.47;;
29026;SDS011;16120;48.608;9.092;2023-02-01T22:13:55;68.73;;;4.80;;
29026;SDS011;16120;48.608;9.092;2023-02-01T22:17:51;72.03;;;5.37;;
29026;SDS011;16120;48.608;9.092;2023-02-01T22:21:47;69.90;;;5.07;;
29026;SDS011;16120;48.608;9.092;2023-02-01T22:25:42;68.50;;;5.67;;
29026;SDS011;16120;48.608;9.092;2023-02-01T22:29:37;73.97;;;5.77;;
29026;SDS011;16120;48.608;9.092;2023-02-01T22:33:34;68.33;;;5.00;;
29026;SDS011;16120;48.608;9.092;2023-02-01T22:37:29;73.13;;;5.57;;
29026;SDS011;16120;48.608;9.092;2023-02-01T22:41:24;75.60;;;5.32;;
29026;SDS011;16120;48.608;9.092;2023-02-01T22:45:20;69.53;;;4.73;;
29026;SDS011;16120;48.608;9.092;2023-02-01T22:49:16;76.63;;;5.87;;
29026;SDS011;16120;48.608;9.092;2023-02-01T22:53:12;72.83;;;5.37;;
29026;SDS011;16120;48.608;9.092;2023-02-01T22:57:07;77.30;;;5.50;;
29026;SDS011;16120;48.608;9.092;2023-02-01T23:01:05;78.07;;;5.63;;
29026;SDS011;16120;48.608;9.092;2023-02-01T23:05:02;69.47;;;4.80;;
29026;SDS011;16120;48.608;9.092;2023-02-01T23:08:58;74.00;;;5.30;;
29026;SDS011;16120;48.608;9.092;2023-02-01T23:12:53;73.10;;;5.40;;
29026;SDS011;16120;48.608;9.092;2023-02-01T23:16:49;71.20;;;4.83;;
29026;SDS011;16120;48.608;9.092;2023-02-01T23:20:45;66.60;;;4.70;;
29026;SDS011;16120;48.608;9.092;2023-02-01T23:24:41;80.97;;;5.17;;
29026;SDS011;16120;48.608;9.092;2023-02-01T23:28:36;80.07;;;5.37;;
29026;SDS011;16120;48.608;9.092;2023-02-01T23:32:31;74.23;;;5.43;;
29026;SDS011;16120;48.608;9.092;2023-02-01T23:36:28;71.75;;;5.15;;
29026;SDS011;16120;48.608;9.092;2023-02-01T23:40:23;81.10;;;5.07;;
29026;SDS011;16120;48.608;9.092;2023-02-01T23:44:18;77.33;;;4.90;;
29026;SDS011;16120;48.608;9.092;2023-02-01T23:48:13;68.75;;;5.00;;